Latest Weather Observations for Mount Moornapa

IDV60801

Issued at 6:02 pm EST Thursday 30 July 2015 (issued every 30 minutes, with the page automatically refreshed every 10 minutes)

About weather observations | Map of weather stations | Latest weather observations for VIC | Other Formats
Station Details ID: 085296 Name: MOUNT MOORNAPA Lat: -37.75 Lon: 147.14 Height: 480.0 m
Data from the previous 72 hours. | See also: Recent months at Mount Moornapa
Date/Time
EST
Temp
°C
App
Temp
°C
Dew
Point
Rel
Hum
%
Delta-T
°C
Wind Press
QNH
hPa
Press
MSL
hPa
Rain
since 9 am
mm
Dir
 
Spd
km/h
Gust
km/h
Spd
kts
Gust
kts
30/06:00pm 10.3 3.4 0.1 49 4.2 NNW 26 48 14 26 - - 0.0
30/05:30pm 10.3 4.2 0.1 49 4.2 NNW 22 35 12 19 - - 0.0
30/05:00pm 10.9 5.0 -0.5 45 4.7 NW 20 46 11 25 - - 0.0
30/04:30pm 10.5 4.4 0.5 50 4.2 NNW 22 39 12 21 - - 0.0
30/04:00pm 9.6 5.7 1.0 55 3.6 NNW 11 24 6 13 - - 0.0
30/03:30pm 9.6 5.8 1.5 57 3.5 NNW 11 19 6 10 - - 0.0
30/03:00pm 10.0 4.3 0.6 52 3.9 NNW 20 39 11 21 - - 0.0
30/02:30pm 9.9 4.2 0.8 53 3.8 NNW 20 48 11 26 - - 0.0
30/02:00pm 9.3 6.0 2.6 63 2.9 N 9 20 5 11 - - 0.0
30/01:30pm 9.1 6.2 2.4 63 2.9 N 7 13 4 7 - - 0.0
30/01:00pm 9.6 5.2 2.7 62 3.0 NNW 15 24 8 13 - - 0.0
30/12:30pm 10.2 7.0 3.3 62 3.1 NNW 9 17 5 9 - - 0.0
30/12:00pm 11.0 7.8 3.3 59 3.5 NNW 9 17 5 9 - - 0.0
30/11:30am 10.8 8.0 3.4 60 3.3 N 7 17 4 9 - - 0.0
30/11:00am 10.3 7.5 2.9 60 3.3 NNW 7 15 4 8 - - 0.0
30/10:30am 9.5 5.8 2.1 60 3.2 NNW 11 17 6 9 - - 0.0
30/10:00am 8.4 4.2 1.8 63 2.8 NNW 13 20 7 11 - - 0.0
30/09:30am 7.0 2.3 1.1 66 2.4 NNW 15 26 8 14 - - 0.0
30/09:00am 6.0 1.3 1.2 71 2.0 N 15 20 8 11 - - 0.0
30/08:30am 4.5 0.2 0.8 77 1.5 NNW 13 20 7 11 - - 0.0
30/08:00am 4.3 0.3 0.6 77 1.5 N 11 15 6 8 - - 0.0
30/07:30am 4.7 0.3 0.5 74 1.7 N 13 19 7 10 - - 0.0
30/07:00am 5.5 1.2 0.7 71 1.9 N 13 17 7 9 - - 0.0
30/06:30am 5.1 1.1 0.5 72 1.8 N 11 15 6 8 - - 0.0
30/06:00am 5.6 1.6 0.4 69 2.1 N 11 17 6 9 - - 0.0
30/05:30am 5.2 1.6 0.4 71 1.9 N 9 13 5 7 - - 0.0
30/05:00am 5.0 1.0 0.6 73 1.8 N 11 17 6 9 - - 0.0
30/04:30am 5.2 1.2 0.4 71 1.9 N 11 15 6 8 - - 0.0
30/04:00am 5.2 1.6 0.6 72 1.8 N 9 13 5 7 - - 0.0
30/03:30am 5.8 2.2 0.8 70 2.0 N 9 11 5 6 - - 0.0
30/03:00am 6.0 2.5 1.2 71 2.0 N 9 9 5 5 - - 0.0
30/02:30am 5.9 2.9 0.9 70 2.0 N 6 7 3 4 - - 0.0
30/02:00am 6.2 4.5 1.9 74 1.8 CALM 0 0 0 0 - - 0.0
30/01:30am 6.7 4.1 1.2 68 2.3 NNW 4 6 2 3 - - 0.0
30/01:00am 6.4 4.6 1.3 70 2.1 CALM 0 0 0 0 - - 0.0
30/12:30am 6.0 3.0 1.9 75 1.7 NNW 7 9 4 5 - - 0.0
30/12:00am 6.4 4.1 2.5 76 1.7 ENE 4 6 2 3 - - 0.0
 
Date/Time
EST
Temp
°C
App
Temp
°C
Dew
Point
Rel
Hum
%
Delta-T
°C
Wind Press
QNH
hPa
Press
MSL
hPa
Rain
since 9 am
mm
Dir
 
Spd
km/h
Gust
km/h
Spd
kts
Gust
kts
29/11:30pm 5.9 3.7 3.2 83 1.2 ENE 4 7 2 4 - - 0.0
29/11:00pm 6.7 4.5 3.3 79 1.5 N 4 6 2 3 - - 0.0
29/10:30pm 6.6 4.6 2.5 75 1.7 WSW 2 4 1 2 - - 0.0
29/10:00pm 6.8 4.2 3.1 77 1.6 W 6 9 3 5 - - 0.0
29/09:30pm 6.6 4.4 3.6 81 1.3 NNW 4 7 2 4 - - 0.0
29/09:00pm 6.7 4.1 3.1 78 1.6 N 6 9 3 5 - - 0.0
29/08:30pm 6.7 4.2 3.7 81 1.3 NNW 6 9 3 5 - - 0.0
29/08:00pm 7.0 4.2 3.1 76 1.7 N 7 11 4 6 - - 0.0
29/07:30pm 6.3 4.1 3.6 83 1.2 ENE 4 9 2 5 - - 0.0
29/07:00pm 6.0 3.5 4.0 87 0.9 E 6 9 3 5 - - 0.0
29/06:30pm 6.5 3.4 3.8 83 1.2 ESE 9 19 5 10 - - 0.0
29/06:00pm 6.7 3.7 4.2 84 1.1 ESE 9 17 5 9 - - 0.0
29/05:30pm 6.7 4.1 4.2 84 1.1 E 7 13 4 7 - - 0.0
29/05:00pm 7.4 5.3 4.0 79 1.5 E 4 6 2 3 - - 0.0
29/04:30pm 8.2 6.9 3.9 74 1.9 CALM 0 0 0 0 - - 0.0
29/04:00pm 8.5 6.6 5.1 79 1.6 ENE 4 6 2 3 - - 0.0
29/03:30pm 9.2 8.2 5.4 77 1.8 CALM 0 4 0 2 - - 0.0
29/03:00pm 9.3 7.8 5.1 75 1.9 SSE 2 4 1 2 - - 0.0
29/02:30pm 9.7 8.1 4.7 71 2.3 SSE 2 4 1 2 - - 0.0
29/02:00pm 10.2 8.9 4.1 66 2.8 CALM 0 2 0 1 - - 0.0
29/01:30pm 10.4 9.1 3.9 64 3.0 CALM 0 4 0 2 - - 0.0
29/01:00pm 10.0 8.2 3.5 64 2.9 S 2 4 1 2 - - 0.0
29/12:30pm 9.7 7.5 3.2 64 2.9 SSW 4 6 2 3 - - 0.0
29/12:00pm 8.9 6.5 2.3 63 2.9 SSW 4 7 2 4 - - 0.0
29/11:30am 8.8 6.5 3.0 67 2.5 S 4 7 2 4 - - 0.0
29/11:00am 8.1 6.6 3.0 70 2.2 CALM 0 4 0 2 - - 0.0
29/10:30am 8.3 5.7 3.4 71 2.2 NNW 6 11 3 6 - - 0.0
29/10:00am 7.2 4.3 2.5 72 2.0 NNW 7 11 4 6 - - 0.0
29/09:30am 6.2 2.5 2.3 76 1.6 N 11 17 6 9 - - 0.0
29/09:00am 5.5 2.2 2.3 80 1.3 N 9 13 5 7 - - 0.0
29/08:30am 4.9 1.5 2.1 82 1.2 N 9 13 5 7 - - 0.0
29/08:00am 4.1 1.0 1.6 84 1.0 N 7 11 4 6 - - 0.0
29/07:30am 4.2 0.8 1.7 84 1.0 N 9 11 5 6 - - 0.0
29/07:00am 3.6 0.1 1.5 86 0.8 N 9 13 5 7 - - 0.0
29/06:30am 3.8 -0.4 1.7 86 0.8 N 13 17 7 9 - - 0.0
29/06:00am 3.8 -0.4 1.5 85 0.9 N 13 17 7 9 - - 0.0
29/05:30am 4.9 1.8 1.6 79 1.3 N 7 9 4 5 - - 0.0
29/05:00am 4.7 0.5 1.9 82 1.1 N 13 15 7 8 - - 0.0
29/04:30am 4.6 0.8 1.8 82 1.1 N 11 15 6 8 - - 0.0
29/04:00am 4.0 -0.2 1.5 84 1.0 N 13 15 7 8 - - 0.0
29/03:30am 5.0 1.2 1.7 79 1.4 N 11 13 6 7 - - 0.0
29/03:00am 5.1 0.9 1.8 79 1.4 N 13 17 7 9 - - 0.0
29/02:30am 5.0 0.8 1.8 80 1.3 N 13 17 7 9 - - 0.0
29/02:00am 4.9 0.3 1.7 80 1.3 N 15 17 8 9 - - 0.0
29/01:30am 4.9 0.7 1.7 80 1.3 N 13 15 7 8 - - 0.0
29/01:00am 5.7 2.0 2.2 78 1.5 N 11 13 6 7 - - 0.0
29/12:30am 6.2 3.3 2.5 77 1.6 NNW 7 9 4 5 - - 0.0
29/12:00am 6.3 4.0 2.6 77 1.6 NW 4 6 2 3 - - 0.0
 
Date/Time
EST
Temp
°C
App
Temp
°C
Dew
Point
Rel
Hum
%
Delta-T
°C
Wind Press
QNH
hPa
Press
MSL
hPa
Rain
since 9 am
mm
Dir
 
Spd
km/h
Gust
km/h
Spd
kts
Gust
kts
28/11:30pm 6.2 3.9 2.7 78 1.5 NW 4 6 2 3 - - 0.0
28/11:00pm 6.7 4.8 3.1 78 1.6 W 2 6 1 3 - - 0.0
28/10:30pm 6.9 5.5 3.3 78 1.6 CALM 0 4 0 2 - - 0.0
28/10:00pm 6.6 4.5 3.9 83 1.2 NNW 4 6 2 3 - - 0.0
28/09:30pm 6.9 5.6 4.0 82 1.3 CALM 0 2 0 1 - - 0.0
28/09:00pm 6.5 4.5 4.2 85 1.0 NW 4 4 2 2 - - 0.0
28/08:30pm 6.3 3.9 4.3 87 0.9 N 6 6 3 3 - - 0.0
28/08:00pm 6.5 4.5 4.3 86 1.0 W 4 7 2 4 - - 0.0
28/07:30pm 6.7 4.2 4.5 86 1.0 WSW 7 11 4 6 - - 0.0
28/07:00pm 6.8 3.9 4.6 86 1.0 SW 9 17 5 9 - - 0.0
28/06:30pm 7.1 4.1 4.1 81 1.3 SW 9 17 5 9 - - 0.0
28/06:00pm 7.4 4.4 4.2 80 1.4 WSW 9 17 5 9 - - 0.0
28/05:30pm 7.4 4.8 4.4 81 1.3 SW 7 13 4 7 - - 0.0
28/05:00pm 8.3 5.3 4.1 75 1.9 WSW 9 19 5 10 - - 0.0
28/04:30pm 9.2 6.2 4.2 71 2.3 WSW 9 20 5 11 - - 0.0
28/04:00pm 9.7 7.3 5.1 73 2.1 SW 7 15 4 8 - - 0.0
28/03:30pm 11.2 9.3 6.5 73 2.3 SW 6 13 3 7 - - 0.0
28/03:00pm 8.9 7.1 5.5 79 1.6 SW 4 9 2 5 - - 0.0
28/02:30pm 10.1 8.0 5.7 74 2.1 SW 6 13 3 7 - - 0.0
28/02:00pm 9.9 7.7 6.1 77 1.8 SW 7 24 4 13 - - 0.0
28/01:30pm 10.5 8.6 6.8 78 1.8 W 6 11 3 6 - - 0.0
28/01:00pm 10.0 7.8 5.2 72 2.2 SW 6 15 3 8 - - 0.0
28/12:30pm 11.0 8.8 6.0 71 2.4 WSW 7 19 4 10 - - 0.0
28/12:00pm 9.6 6.8 5.2 74 2.0 WSW 9 24 5 13 - - 0.0
28/11:30am 9.8 6.2 5.0 72 2.2 WSW 13 26 7 14 - - 0.0
28/11:00am 9.2 6.2 5.9 80 1.6 WSW 11 26 6 14 - - 0.0
28/10:30am 8.6 5.1 5.5 81 1.4 WSW 13 20 7 11 - - 0.0
28/10:00am 8.0 5.3 5.5 84 1.2 W 9 20 5 11 - - 0.0
28/09:30am 7.7 4.6 5.5 86 1.0 WSW 11 19 6 10 - - 0.0
28/09:00am 7.3 3.8 5.3 87 0.9 WSW 13 24 7 13 - - 0.0
28/08:30am 7.2 4.4 5.3 88 0.9 W 9 17 5 9 - - 0.0
28/08:00am 6.8 4.1 5.6 92 0.5 W 9 17 5 9 - - 0.0
28/07:30am 7.1 3.9 5.3 88 0.8 W 11 24 6 13 - - 0.0
28/07:00am 7.2 4.0 5.2 87 0.9 W 11 20 6 11 - - 0.0
28/06:30am 7.2 4.0 5.0 86 1.0 W 11 24 6 13 - - 0.0
28/06:00am 6.7 3.2 5.5 92 0.5 W 13 22 7 12 - - 0.0
28/05:30am 7.5 4.2 4.6 82 1.3 W 11 20 6 11 - - 0.0
28/05:00am 7.5 4.2 4.3 80 1.4 W 11 22 6 12 - - 0.0
28/04:30am 7.5 4.1 4.1 79 1.5 W 11 24 6 13 - - 0.0
28/04:00am 7.3 3.9 3.9 79 1.5 W 11 19 6 10 - - 0.0
28/03:30am 7.3 3.8 3.5 77 1.7 W 11 20 6 11 - - 0.0
28/03:00am 7.4 3.5 3.5 76 1.7 W 13 22 7 12 - - 0.0
28/02:30am 7.3 3.3 3.0 74 1.9 W 13 22 7 12 - - 0.0
28/02:00am 7.1 3.1 2.6 73 1.9 W 13 20 7 11 - - 0.0
28/01:30am 6.8 3.5 2.5 74 1.8 WNW 9 17 5 9 - - 0.0
28/01:00am 6.8 3.1 2.3 73 1.9 WNW 11 20 6 11 - - 0.0
28/12:30am 6.9 3.2 2.2 72 2.0 WNW 11 24 6 13 - - 0.0
28/12:00am 6.9 3.6 2.2 72 2.0 WNW 9 19 5 10 - - 0.0
 
Date/Time
EST
Temp
°C
App
Temp
°C
Dew
Point
Rel
Hum
%
Delta-T
°C
Wind Press
QNH
hPa
Press
MSL
hPa
Rain
since 9 am
mm
Dir
 
Spd
km/h
Gust
km/h
Spd
kts
Gust
kts
27/11:30pm 6.8 3.1 2.1 72 2.0 WNW 11 22 6 12 - - 0.0
27/11:00pm 6.7 3.3 2.0 72 2.0 WNW 9 17 5 9 - - 0.0
27/10:30pm 6.6 3.2 1.7 71 2.0 W 9 20 5 11 - - 0.0
27/10:00pm 7.1 2.9 1.6 68 2.3 W 13 30 7 16 - - 0.0
27/09:30pm 6.9 3.4 1.4 68 2.3 W 9 20 5 11 - - 0.0
27/09:00pm 6.8 3.0 1.5 69 2.2 WNW 11 20 6 11 - - 0.0
27/08:30pm 6.7 2.1 1.8 71 2.0 W 15 22 8 12 - - 0.0
27/08:00pm 6.9 1.6 2.0 71 2.1 W 19 39 10 21 - - 0.0
27/07:30pm 6.5 1.7 2.4 75 1.7 W 17 37 9 20 - - 0.0
27/07:00pm 6.2 2.2 2.8 79 1.4 WNW 13 28 7 15 - - 0.0
27/06:30pm 6.4 2.5 3.4 81 1.3 W 13 26 7 14 - - 0.0

Other Formats:

Comma delimited format used in spreadsheet applications
http://www.bom.gov.au/fwo/IDV60801/IDV60801.95913.axf

JavaScript Object Notation format (JSON) in row-major order
http://www.bom.gov.au/fwo/IDV60801/IDV60801.95913.json